createdAt,value
2022-12-05T00:01:58.884Z,230.70
2022-12-05T00:04:26.164Z,270.75
2022-12-05T00:06:53.623Z,328.08
2022-12-05T00:09:20.982Z,319.98
2022-12-05T00:11:49.102Z,312.30
2022-12-05T00:14:18.287Z,266.58
2022-12-05T00:16:45.869Z,239.25
2022-12-05T00:19:15.564Z,269.85
2022-12-05T00:21:43.888Z,297.67
2022-12-05T00:24:14.520Z,218.63
2022-12-05T00:26:41.818Z,224.45
2022-12-05T00:29:09.041Z,245.02
2022-12-05T00:31:36.361Z,247.50
2022-12-05T00:34:05.021Z,218.55
2022-12-05T00:36:34.033Z,210.48
2022-12-05T00:39:04.264Z,178.93
2022-12-05T00:41:31.779Z,199.40
2022-12-05T00:44:01.335Z,146.25
2022-12-05T00:46:30.631Z,136.88
2022-12-05T00:48:59.752Z,161.60
2022-12-05T00:51:31.004Z,154.70
2022-12-05T00:54:01.249Z,208.40
2022-12-05T00:56:30.292Z,257.00
2022-12-05T00:58:58.520Z,245.63
2022-12-05T01:01:28.949Z,294.58
2022-12-05T01:03:58.641Z,273.65
2022-12-05T01:06:26.641Z,371.17
2022-12-05T01:08:55.719Z,325.48
2022-12-05T01:11:23.988Z,291.10
2022-12-05T01:13:51.806Z,261.60
2022-12-05T01:16:22.659Z,267.33
2022-12-05T01:18:50.315Z,212.40
2022-12-05T01:21:18.447Z,172.68
2022-12-05T01:23:47.223Z,194.93
2022-12-05T01:26:16.325Z,204.40
2022-12-05T01:28:44.091Z,175.23
2022-12-05T01:31:34.453Z,182.25
2022-12-05T01:34:03.604Z,119.85
2022-12-05T01:36:31.562Z,131.77
2022-12-05T01:38:59.516Z,111.38
2022-12-05T01:41:33.266Z,99.22
2022-12-05T01:44:40.338Z,113.90
2022-12-05T01:47:09.083Z,109.65
2022-12-05T01:49:39.583Z,104.53
2022-12-05T01:52:11.168Z,128.55
2022-12-05T01:54:39.630Z,116.10
2022-12-05T01:57:13.065Z,175.07
2022-12-05T01:59:44.403Z,148.90
2022-12-05T02:02:15.745Z,137.85
2022-12-05T02:05:17.784Z,126.25
2022-12-05T02:07:50.003Z,106.28
2022-12-05T02:10:32.984Z,137.60
2022-12-05T02:13:27.018Z,92.13
2022-12-05T02:16:34.085Z,138.57
2022-12-05T02:19:45.752Z,118.63
2022-12-05T02:22:53.252Z,133.90
2022-12-05T02:26:01.582Z,129.60
2022-12-05T02:29:11.643Z,146.55
2022-12-05T02:31:55.133Z,146.02
2022-12-05T02:34:37.390Z,123.63
2022-12-05T02:37:37.523Z,114.18
2022-12-05T02:40:27.832Z,150.70
2022-12-05T02:43:35.485Z,201.88
2022-12-05T02:46:09.481Z,165.50
2022-12-05T02:48:40.302Z,187.05
2022-12-05T02:51:09.963Z,221.00
2022-12-05T02:53:39.539Z,187.18
2022-12-05T02:56:08.159Z,177.15
2022-12-05T02:58:42.201Z,147.45
2022-12-05T03:01:10.521Z,150.32
2022-12-05T03:03:38.277Z,147.00
2022-12-05T03:06:27.688Z,141.00
2022-12-05T03:09:05.043Z,120.55
2022-12-05T03:11:48.885Z,163.50
2022-12-05T03:14:23.138Z,173.43
2022-12-05T03:16:54.152Z,144.75
2022-12-05T03:19:46.878Z,125.07
2022-12-05T03:22:35.642Z,119.85
2022-12-05T03:25:04.170Z,126.78
2022-12-05T03:27:53.496Z,126.93
2022-12-05T03:30:23.108Z,92.72
2022-12-05T03:33:29.931Z,116.53
2022-12-05T03:36:19.678Z,120.20
2022-12-05T03:39:13.093Z,109.15
2022-12-05T03:41:49.987Z,134.90
2022-12-05T03:44:26.490Z,187.50
2022-12-05T03:47:02.198Z,115.45
2022-12-05T03:49:42.046Z,135.93
2022-12-05T03:52:25.332Z,153.80
2022-12-05T03:54:57.924Z,115.03
2022-12-05T03:57:33.262Z,114.57
2022-12-05T04:03:13.019Z,100.25
2022-12-05T04:05:46.705Z,130.93
2022-12-05T04:08:20.426Z,105.85
2022-12-05T04:10:51.164Z,101.35
2022-12-05T04:13:29.191Z,95.53
2022-12-05T04:16:21.753Z,126.57
2022-12-05T04:18:58.731Z,103.75
2022-12-05T04:21:38.838Z,113.80
2022-12-05T04:24:32.165Z,117.40
2022-12-05T04:27:25.299Z,88.95
2022-12-05T04:30:02.930Z,89.38
2022-12-05T04:32:55.495Z,104.85
2022-12-05T04:35:29.341Z,104.90
2022-12-05T04:38:03.306Z,83.82
2022-12-05T04:40:38.065Z,123.93
2022-12-05T04:43:07.193Z,93.97
2022-12-05T04:45:37.779Z,85.65
2022-12-05T04:48:11.971Z,99.55
2022-12-05T04:50:40.036Z,81.63
2022-12-05T04:53:09.468Z,94.55
2022-12-05T04:55:39.727Z,133.88
2022-12-05T04:58:10.510Z,100.68
2022-12-05T05:01:17.299Z,102.50
2022-12-05T05:04:09.367Z,106.90
2022-12-05T05:06:39.317Z,100.13
2022-12-05T05:09:07.166Z,105.05
2022-12-05T05:11:35.847Z,101.15
2022-12-05T05:14:03.041Z,86.55
2022-12-05T05:16:36.590Z,133.63
2022-12-05T05:19:04.332Z,129.02
2022-12-05T05:21:35.227Z,167.48
2022-12-05T05:24:03.228Z,144.23
2022-12-05T05:26:31.585Z,106.25
2022-12-05T05:28:59.385Z,121.35
2022-12-05T05:31:26.931Z,116.72
2022-12-05T05:33:55.927Z,125.03
2022-12-05T05:36:24.987Z,148.18
2022-12-05T05:38:54.530Z,95.57
2022-12-05T05:41:25.536Z,139.57
2022-12-05T05:43:53.229Z,105.22
2022-12-05T05:46:23.748Z,139.88
2022-12-05T05:48:51.426Z,120.55
2022-12-05T05:51:20.004Z,92.18
2022-12-05T05:53:47.519Z,97.28
2022-12-05T05:56:21.568Z,83.90
2022-12-05T05:59:03.939Z,121.22
2022-12-05T06:01:31.350Z,163.07
2022-12-05T06:04:05.904Z,140.25
2022-12-05T06:06:33.224Z,98.97
2022-12-05T06:09:00.339Z,137.38
2022-12-05T06:11:28.670Z,123.45
2022-12-05T06:13:57.379Z,94.07
2022-12-05T06:16:24.861Z,92.13
2022-12-05T06:18:53.072Z,92.63
2022-12-05T06:21:20.353Z,77.68
2022-12-05T06:23:48.076Z,96.93
2022-12-05T06:26:18.277Z,89.60
2022-12-05T06:28:45.589Z,115.07
2022-12-05T06:31:16.360Z,106.43
2022-12-05T06:33:44.136Z,113.38
2022-12-05T06:36:14.302Z,142.18
2022-12-05T06:38:42.476Z,131.10
2022-12-05T06:41:15.074Z,110.35
2022-12-05T06:43:42.974Z,120.82
2022-12-05T06:46:12.577Z,108.70
2022-12-05T06:48:39.803Z,170.35
2022-12-05T06:51:10.883Z,187.65
2022-12-05T06:53:38.501Z,141.38
2022-12-05T06:56:11.652Z,96.30
2022-12-05T06:58:38.823Z,100.68
2022-12-05T07:01:26.052Z,108.43
2022-12-05T07:03:53.241Z,89.57
2022-12-05T07:06:20.281Z,92.88
2022-12-05T07:08:47.576Z,86.75
2022-12-05T07:11:14.683Z,85.63
2022-12-05T07:13:41.757Z,82.82
2022-12-05T07:16:08.945Z,91.65
2022-12-05T07:18:36.778Z,111.07
2022-12-05T07:21:12.183Z,106.30
2022-12-05T07:23:41.123Z,105.47
2022-12-05T07:26:10.052Z,113.75
2022-12-05T07:28:37.258Z,157.88
2022-12-05T07:31:08.504Z,120.10
2022-12-05T07:33:35.938Z,111.07
2022-12-05T07:36:06.366Z,126.75
2022-12-05T07:38:33.870Z,138.85
2022-12-05T07:41:07.831Z,141.15
2022-12-05T07:43:37.425Z,161.32
2022-12-05T07:46:06.387Z,136.98
2022-12-05T07:48:33.697Z,119.88
2022-12-05T07:51:05.857Z,86.78
2022-12-05T07:53:33.521Z,99.43
2022-12-05T07:56:02.183Z,89.25
2022-12-05T07:58:30.167Z,94.50
2022-12-05T08:00:58.405Z,91.97
2022-12-05T08:03:25.594Z,102.43
2022-12-05T08:05:52.899Z,119.95
2022-12-05T08:08:20.069Z,110.07
2022-12-05T08:10:47.285Z,91.35
2022-12-05T08:13:14.329Z,85.70
2022-12-05T08:15:41.436Z,89.72
2022-12-05T08:18:08.572Z,79.28
2022-12-05T08:20:35.740Z,87.57
2022-12-05T08:23:02.802Z,96.13
2022-12-05T08:25:30.049Z,96.65
2022-12-05T08:27:57.137Z,104.97
2022-12-05T08:30:24.561Z,104.80
2022-12-05T08:32:52.036Z,94.28
2022-12-05T08:35:19.143Z,100.47
2022-12-05T08:37:46.242Z,90.32
2022-12-05T08:40:13.663Z,83.57
2022-12-05T08:42:40.742Z,95.10
2022-12-05T08:45:08.524Z,86.75
2022-12-05T08:47:36.170Z,95.22
2022-12-05T08:50:03.654Z,91.43
2022-12-05T08:52:30.772Z,100.18
2022-12-05T08:54:58.085Z,81.15
2022-12-05T08:57:25.316Z,75.30
2022-12-05T08:59:52.602Z,90.50
2022-12-05T09:02:19.741Z,107.60
2022-12-05T09:04:54.410Z,101.30
2022-12-05T09:07:21.487Z,93.47
2022-12-05T09:09:48.664Z,90.57
2022-12-05T09:12:15.781Z,87.90
2022-12-05T09:14:42.819Z,92.15
2022-12-05T09:17:09.854Z,74.57
2022-12-05T09:19:36.906Z,76.68
2022-12-05T09:22:05.467Z,80.32
2022-12-05T09:24:32.521Z,67.80
2022-12-05T09:26:59.657Z,67.30
2022-12-05T09:29:29.615Z,73.68
2022-12-05T09:31:56.741Z,60.05
2022-12-05T09:34:26.146Z,72.40
2022-12-05T09:37:05.487Z,70.70
2022-12-05T09:39:38.077Z,68.22
2022-12-05T09:42:44.841Z,66.25
2022-12-05T09:45:38.017Z,63.67
2022-12-05T09:48:32.773Z,82.65
2022-12-05T09:51:03.217Z,67.55
2022-12-05T09:53:50.225Z,78.80
2022-12-05T09:56:31.117Z,62.70
2022-12-05T09:59:01.037Z,74.30
2022-12-05T10:01:53.830Z,75.85
2022-12-05T10:04:48.748Z,82.45
2022-12-05T10:07:55.706Z,85.07
2022-12-05T10:10:51.057Z,83.70
2022-12-05T10:13:41.122Z,76.43
2022-12-05T10:16:17.500Z,105.50
2022-12-05T10:18:50.883Z,102.80
2022-12-05T10:21:34.501Z,128.45
2022-12-05T10:24:04.965Z,111.93
2022-12-05T10:26:42.091Z,100.30
2022-12-05T10:29:32.050Z,101.50
2022-12-05T10:32:31.030Z,85.07
2022-12-05T10:35:14.857Z,108.25
2022-12-05T10:37:48.941Z,114.07
2022-12-05T10:40:16.948Z,127.60
2022-12-05T10:42:45.232Z,118.70
2022-12-05T10:45:20.170Z,125.40
2022-12-05T10:47:49.030Z,107.30
2022-12-05T10:50:37.065Z,157.40
2022-12-05T10:53:06.504Z,123.93
2022-12-05T10:55:41.223Z,122.28
2022-12-05T10:58:17.819Z,110.30
2022-12-05T11:00:47.922Z,133.98
2022-12-05T11:03:37.567Z,121.97
2022-12-05T11:06:26.178Z,94.30
2022-12-05T11:09:13.985Z,92.57
2022-12-05T11:11:41.358Z,112.13
2022-12-05T11:14:26.676Z,104.88
2022-12-05T11:16:57.839Z,99.05
2022-12-05T11:19:44.843Z,159.20
2022-12-05T11:22:18.155Z,113.30
2022-12-05T11:24:45.252Z,162.50
2022-12-05T11:27:27.536Z,125.57
2022-12-05T11:29:59.503Z,91.22
2022-12-05T11:32:29.727Z,95.75
2022-12-05T11:35:36.563Z,73.18
2022-12-05T11:38:05.811Z,68.05
2022-12-05T11:40:58.386Z,76.35
2022-12-05T11:44:05.155Z,72.68
2022-12-05T11:47:12.104Z,90.05
2022-12-05T11:50:18.965Z,76.80
2022-12-05T11:53:26.455Z,72.90
2022-12-05T11:56:33.573Z,79.22
2022-12-05T11:59:40.324Z,83.90
2022-12-05T12:02:47.124Z,101.63
2022-12-05T12:05:38.608Z,117.75
2022-12-05T12:08:35.879Z,90.75
2022-12-05T12:11:34.074Z,77.38
2022-12-05T12:14:26.834Z,111.40
2022-12-05T12:17:33.602Z,97.78
2022-12-05T12:20:35.003Z,85.38
2022-12-05T12:23:31.582Z,101.75
2022-12-05T12:26:38.601Z,94.25
2022-12-05T12:29:45.454Z,90.88
2022-12-05T12:32:52.317Z,85.45
2022-12-05T12:35:46.594Z,100.47
2022-12-05T12:38:54.697Z,102.65
2022-12-05T12:42:01.751Z,108.13
2022-12-05T12:45:08.574Z,141.65
2022-12-05T12:48:15.401Z,108.32
2022-12-05T12:50:45.597Z,119.53
2022-12-05T12:53:47.763Z,97.10
2022-12-05T12:56:54.564Z,94.47
2022-12-05T13:00:01.367Z,107.85
2022-12-05T13:02:51.662Z,110.85
2022-12-05T13:05:43.010Z,124.43
2022-12-05T13:08:36.056Z,139.40
2022-12-05T13:11:07.373Z,92.55
2022-12-05T13:13:40.351Z,113.07
2022-12-05T13:16:09.609Z,96.03
2022-12-05T13:18:36.938Z,114.57
2022-12-05T13:21:39.211Z,113.82
2022-12-05T13:24:11.096Z,111.90
2022-12-05T13:26:48.355Z,100.30
2022-12-05T13:29:24.577Z,98.35
2022-12-05T13:31:53.259Z,101.72
2022-12-05T13:34:46.225Z,119.25
2022-12-05T13:37:41.332Z,95.78
2022-12-05T13:40:52.447Z,108.38
2022-12-05T13:43:23.944Z,100.63
2022-12-05T13:46:21.425Z,97.28
2022-12-05T13:48:52.867Z,109.00
2022-12-05T13:51:40.572Z,95.88
2022-12-05T13:54:16.986Z,114.72
2022-12-05T13:57:02.357Z,105.25
2022-12-05T14:00:09.917Z,133.68
2022-12-05T14:02:59.496Z,108.40
2022-12-05T14:05:44.592Z,109.10
2022-12-05T14:08:50.910Z,132.60
2022-12-05T14:11:18.253Z,134.75
2022-12-05T14:13:45.807Z,136.10
2022-12-05T14:16:52.695Z,128.23
2022-12-05T14:19:51.320Z,105.95
2022-12-05T14:22:44.135Z,112.35
2022-12-05T14:25:58.505Z,112.68
2022-12-05T14:28:57.738Z,90.65
2022-12-05T14:32:04.894Z,101.28
2022-12-05T14:34:35.104Z,98.07
2022-12-05T14:37:32.008Z,103.82
2022-12-05T14:40:01.182Z,116.07
2022-12-05T14:42:58.760Z,102.80
2022-12-05T14:45:51.001Z,120.85
2022-12-05T14:49:09.660Z,113.53
2022-12-05T14:51:57.510Z,119.20
2022-12-05T14:54:51.849Z,101.60
2022-12-05T14:57:22.181Z,112.57
2022-12-05T15:54:53.487Z,110.88
2022-12-05T15:57:46.719Z,116.95
2022-12-05T16:00:56.929Z,110.88
2022-12-05T16:11:25.513Z,105.25
2022-12-05T18:34:13.204Z,156.18
2022-12-05T18:40:16.690Z,112.10
2022-12-05T18:43:04.535Z,127.47
2022-12-05T19:24:54.247Z,122.45
2022-12-05T19:27:36.785Z,145.50
2022-12-05T19:30:21.190Z,130.60
2022-12-05T19:32:54.303Z,140.77
2022-12-05T19:35:26.551Z,142.43
2022-12-05T19:38:03.391Z,157.55
2022-12-05T19:40:39.574Z,131.18
2022-12-05T19:45:41.059Z,138.70
2022-12-05T19:48:12.680Z,139.18
2022-12-05T19:50:52.201Z,140.68
2022-12-05T19:53:23.365Z,124.20
2022-12-05T19:56:05.783Z,142.90
2022-12-05T19:58:44.384Z,139.40
2022-12-05T20:01:54.666Z,140.50
2022-12-05T20:04:48.103Z,126.32
2022-12-05T20:07:19.588Z,136.52
2022-12-05T20:09:58.897Z,122.70
2022-12-05T20:12:36.640Z,107.50
2022-12-05T20:15:15.107Z,127.47
2022-12-05T20:17:53.167Z,119.60
2022-12-05T20:20:36.203Z,119.13
2022-12-05T20:23:13.429Z,103.75
2022-12-05T20:25:57.304Z,122.93
2022-12-05T20:28:38.748Z,107.47
2022-12-05T20:31:30.286Z,121.35
2022-12-05T20:34:17.279Z,117.88
2022-12-05T20:36:54.564Z,160.32
2022-12-05T20:39:23.221Z,117.18
2022-12-05T20:41:54.504Z,134.38
2022-12-05T20:44:30.009Z,139.77
2022-12-05T20:47:06.035Z,129.57
2022-12-05T20:49:41.198Z,139.05
2022-12-05T20:52:23.068Z,123.70
2022-12-05T20:54:56.744Z,135.43
2022-12-05T20:57:38.057Z,149.70
2022-12-05T21:00:15.945Z,138.23
2022-12-05T21:02:50.161Z,140.15
2022-12-05T21:05:26.952Z,136.65
2022-12-05T21:07:57.689Z,127.63
2022-12-05T21:10:35.640Z,128.82
2022-12-05T21:13:05.043Z,130.80
2022-12-05T21:15:38.173Z,127.43
2022-12-05T21:18:06.080Z,126.30
2022-12-05T21:20:42.222Z,119.70
2022-12-05T21:23:48.032Z,116.10
2022-12-05T21:26:25.025Z,123.70
2022-12-05T21:28:56.829Z,115.65
2022-12-05T21:31:48.822Z,137.40
2022-12-05T21:36:41.230Z,109.70
2022-12-05T21:38:55.895Z,100.57
2022-12-05T21:48:58.684Z,86.05
2022-12-05T21:58:42.172Z,91.10
2022-12-05T22:05:39.827Z,85.63
2022-12-05T22:10:46.179Z,80.13
2022-12-05T22:15:02.295Z,100.60
2022-12-05T22:25:38.179Z,87.28
2022-12-05T22:49:10.645Z,101.18
2022-12-05T23:03:03.235Z,111.32
2022-12-05T23:06:04.733Z,117.60
2022-12-05T23:25:30.374Z,153.43
2022-12-05T23:41:41.680Z,113.63
